createdAt,value
2018-11-07T00:02:31.332Z,86.12
2018-11-07T00:05:02.249Z,85.61
2018-11-07T00:07:33.109Z,85.37
2018-11-07T00:10:03.972Z,86.17
2018-11-07T00:12:34.881Z,85.86
2018-11-07T00:15:05.813Z,85.69
2018-11-07T00:17:36.863Z,85.68
2018-11-07T00:20:09.878Z,85.40
2018-11-07T00:22:41.063Z,85.67
2018-11-07T00:25:12.604Z,85.31
2018-11-07T00:27:43.461Z,85.43
2018-11-07T00:30:14.416Z,85.74
2018-11-07T00:32:45.506Z,86.59
2018-11-07T00:35:16.781Z,86.87
2018-11-07T00:37:47.663Z,87.36
2018-11-07T00:40:18.934Z,87.03
2018-11-07T00:42:49.798Z,86.64
2018-11-07T00:45:20.728Z,86.66
2018-11-07T00:47:51.903Z,86.59
2018-11-07T00:50:23.145Z,87.26
2018-11-07T00:52:54.049Z,87.00
2018-11-07T00:55:24.925Z,86.91
2018-11-07T00:57:55.833Z,87.07
2018-11-07T01:00:26.674Z,87.35
2018-11-07T01:02:57.574Z,87.32
2018-11-07T01:05:28.881Z,87.17
2018-11-07T01:07:59.766Z,87.43
2018-11-07T01:10:30.731Z,87.59
2018-11-07T01:13:01.651Z,87.97
2018-11-07T01:15:32.974Z,87.71
2018-11-07T01:18:03.878Z,87.95
2018-11-07T01:20:34.745Z,87.72
2018-11-07T01:23:05.727Z,87.68
2018-11-07T01:25:36.682Z,87.46
2018-11-07T01:28:07.973Z,87.20
2018-11-07T01:30:38.805Z,87.31
2018-11-07T01:33:09.764Z,87.36
2018-11-07T01:35:40.624Z,86.98
2018-11-07T01:38:30.603Z,86.08
2018-11-07T01:41:01.474Z,86.36
2018-11-07T01:43:32.349Z,86.15
2018-11-07T01:46:03.239Z,86.59
2018-11-07T01:48:34.167Z,86.39
2018-11-07T01:51:05.119Z,86.47
2018-11-07T01:53:36.352Z,86.35
2018-11-07T01:56:07.540Z,86.34
2018-11-07T01:58:38.425Z,86.42
2018-11-07T02:01:09.346Z,87.46
2018-11-07T02:03:40.583Z,87.75
2018-11-07T02:06:12.208Z,88.24
2018-11-07T02:08:43.105Z,88.01
2018-11-07T02:11:14.348Z,87.81
2018-11-07T02:13:45.241Z,87.63
2018-11-07T02:16:16.141Z,87.83
2018-11-07T02:18:47.766Z,87.63
2018-11-07T02:21:19.018Z,87.83
2018-11-07T02:23:49.960Z,87.74
2018-11-07T02:26:21.167Z,88.31
2018-11-07T02:28:52.084Z,88.10
2018-11-07T02:31:24.281Z,87.36
2018-11-07T02:33:55.214Z,86.75
2018-11-07T02:36:26.234Z,87.01
2018-11-07T02:38:57.424Z,87.30
2018-11-07T02:41:28.373Z,87.52
2018-11-07T02:43:59.296Z,87.29
2018-11-07T02:46:30.174Z,87.30
2018-11-07T02:49:01.886Z,87.49
2018-11-07T02:51:33.096Z,87.30
2018-11-07T02:54:05.083Z,87.26
2018-11-07T02:56:36.329Z,87.27
2018-11-07T02:59:07.838Z,86.73
2018-11-07T03:01:38.721Z,86.90
2018-11-07T03:04:09.605Z,87.03
2018-11-07T03:06:40.509Z,87.07
2018-11-07T03:09:11.702Z,87.41
2018-11-07T03:11:42.926Z,87.56
2018-11-07T03:14:14.135Z,87.54
2018-11-07T03:16:45.472Z,87.12
2018-11-07T03:19:16.373Z,86.52
2018-11-07T03:21:47.261Z,86.39
2018-11-07T03:24:18.182Z,87.15
2018-11-07T03:26:49.099Z,87.06
2018-11-07T03:29:20.000Z,87.53
2018-11-07T03:31:50.915Z,87.67
2018-11-07T03:34:21.860Z,87.68
2018-11-07T03:36:52.964Z,87.56
2018-11-07T03:39:23.846Z,87.67
2018-11-07T03:41:55.078Z,86.68
2018-11-07T03:44:26.325Z,86.70
2018-11-07T03:46:57.234Z,87.55
2018-11-07T03:49:28.165Z,87.42
2018-11-07T03:51:59.340Z,86.80
2018-11-07T03:54:30.280Z,86.69
2018-11-07T03:57:01.218Z,87.00
2018-11-07T03:59:32.150Z,87.65
2018-11-07T04:02:03.423Z,87.61
2018-11-07T04:04:35.451Z,87.36
2018-11-07T04:07:06.982Z,87.57
2018-11-07T04:09:37.876Z,87.32
2018-11-07T04:12:08.816Z,87.41
2018-11-07T04:14:39.734Z,87.57
2018-11-07T04:17:10.678Z,88.26
2018-11-07T04:19:41.564Z,87.99
2018-11-07T04:22:12.442Z,87.61
2018-11-07T04:24:43.693Z,87.24
2018-11-07T04:27:14.556Z,87.13
2018-11-07T04:29:45.716Z,87.47
2018-11-07T04:32:16.592Z,87.17
2018-11-07T04:34:47.518Z,89.83
2018-11-07T04:37:18.445Z,90.70
2018-11-07T04:39:49.355Z,90.49
2018-11-07T04:42:20.274Z,89.75
2018-11-07T04:44:51.194Z,90.43
2018-11-07T04:47:22.086Z,90.86
2018-11-07T04:49:53.636Z,91.01
2018-11-07T04:52:24.521Z,90.90
2018-11-07T04:54:55.456Z,91.23
2018-11-07T04:57:26.689Z,90.69
2018-11-07T04:59:57.905Z,90.32
2018-11-07T05:02:29.284Z,90.74
2018-11-07T05:05:00.193Z,90.81
2018-11-07T05:07:31.471Z,90.33
2018-11-07T05:10:02.794Z,89.59
2018-11-07T05:12:33.958Z,89.58
2018-11-07T05:15:04.854Z,89.71
2018-11-07T05:17:35.730Z,89.91
2018-11-07T05:20:08.492Z,89.84
2018-11-07T05:22:39.463Z,90.19
2018-11-07T05:25:11.362Z,90.52
2018-11-07T05:27:43.110Z,90.47
2018-11-07T05:30:14.017Z,90.25
2018-11-07T05:32:45.229Z,89.97
2018-11-07T05:35:16.189Z,89.60
2018-11-07T05:37:47.162Z,88.95
2018-11-07T05:40:18.067Z,88.37
2018-11-07T05:42:48.954Z,88.68
2018-11-07T05:45:19.911Z,88.45
2018-11-07T05:47:51.479Z,87.87
2018-11-07T05:50:22.404Z,87.83
2018-11-07T05:52:53.330Z,87.99
2018-11-07T05:55:24.241Z,87.96
2018-11-07T05:57:55.956Z,88.68
2018-11-07T06:00:26.887Z,87.71
2018-11-07T06:02:57.795Z,88.05
2018-11-07T06:05:28.735Z,88.96
2018-11-07T06:07:59.624Z,88.69
2018-11-07T06:10:30.539Z,88.61
2018-11-07T06:13:02.406Z,90.45
2018-11-07T06:15:33.359Z,89.93
2018-11-07T06:18:04.713Z,90.46
2018-11-07T06:20:35.648Z,90.22
2018-11-07T06:23:06.594Z,89.59
2018-11-07T06:25:37.558Z,89.72
2018-11-07T06:28:11.959Z,90.05
2018-11-07T06:30:42.852Z,90.23
2018-11-07T06:33:13.793Z,90.03
2018-11-07T06:35:44.678Z,89.37
2018-11-07T06:38:15.913Z,89.30
2018-11-07T06:40:47.158Z,89.31
2018-11-07T06:43:18.392Z,89.32
2018-11-07T06:45:50.022Z,89.58
2018-11-07T06:48:20.983Z,90.03
2018-11-07T06:50:51.878Z,89.87
2018-11-07T06:53:22.762Z,89.96
2018-11-07T06:55:53.652Z,89.71
2018-11-07T06:58:24.562Z,89.19
2018-11-07T07:00:55.461Z,89.20
2018-11-07T07:03:26.624Z,89.52
2018-11-07T07:05:57.885Z,89.56
2018-11-07T07:08:29.410Z,88.76
2018-11-07T07:11:00.348Z,88.81
2018-11-07T07:13:31.617Z,89.08
2018-11-07T07:16:02.484Z,88.98
2018-11-07T07:18:33.423Z,88.76
2018-11-07T07:21:04.307Z,88.70
2018-11-07T07:23:35.734Z,88.22
2018-11-07T07:26:06.617Z,87.80
2018-11-07T07:28:38.029Z,87.31
2018-11-07T07:31:08.920Z,86.25
2018-11-07T07:33:40.218Z,86.10
2018-11-07T07:36:11.053Z,85.78
2018-11-07T07:39:01.298Z,85.24
2018-11-07T07:41:32.224Z,85.64
2018-11-07T07:44:03.503Z,85.95
2018-11-07T07:46:34.785Z,86.18
2018-11-07T07:49:06.245Z,86.16
2018-11-07T07:51:37.279Z,85.66
2018-11-07T07:54:08.224Z,84.84
2018-11-07T07:56:39.825Z,84.75
2018-11-07T07:59:10.866Z,82.81
2018-11-07T08:01:42.493Z,82.70
2018-11-07T08:04:13.474Z,82.49
2018-11-07T08:06:44.666Z,82.14
2018-11-07T08:09:15.994Z,82.54
2018-11-07T08:11:46.968Z,82.43
2018-11-07T08:14:17.930Z,80.90
2018-11-07T08:16:49.584Z,78.56
2018-11-07T08:19:20.606Z,79.47
2018-11-07T08:21:51.883Z,80.08
2018-11-07T08:24:23.147Z,79.13
2018-11-07T08:26:54.387Z,78.82
2018-11-07T08:29:25.452Z,79.15
2018-11-07T08:31:56.421Z,78.28
2018-11-07T08:34:27.345Z,76.37
2018-11-07T08:36:58.956Z,75.44
2018-11-07T08:39:29.942Z,76.50
2018-11-07T08:42:00.874Z,74.39
2018-11-07T08:44:31.919Z,74.17
2018-11-07T08:47:02.964Z,71.74
2018-11-07T08:49:33.960Z,70.57
2018-11-07T08:52:04.950Z,70.66
2018-11-07T08:54:36.006Z,69.08
2018-11-07T08:57:07.196Z,69.45
2018-11-07T08:59:38.454Z,69.27
2018-11-07T09:02:09.451Z,71.56
2018-11-07T09:04:40.404Z,71.38
2018-11-07T09:07:11.681Z,72.22
2018-11-07T09:09:42.693Z,72.13
2018-11-07T09:12:13.671Z,72.86
2018-11-07T09:14:44.670Z,75.10
2018-11-07T09:17:15.707Z,77.85
2018-11-07T09:19:46.648Z,79.69
2018-11-07T09:22:17.682Z,80.45
2018-11-07T09:24:48.707Z,80.84
2018-11-07T09:27:19.719Z,81.94
2018-11-07T09:29:51.204Z,82.76
2018-11-07T09:32:22.084Z,83.08
2018-11-07T09:34:53.131Z,81.82
2018-11-07T09:37:24.116Z,81.16
2018-11-07T09:39:55.098Z,80.92
2018-11-07T09:42:27.224Z,78.87
2018-11-07T09:44:58.829Z,75.39
2018-11-07T09:47:29.870Z,72.66
2018-11-07T09:50:00.843Z,70.20
2018-11-07T09:52:31.820Z,67.31
2018-11-07T09:55:02.967Z,66.61
2018-11-07T09:57:34.420Z,67.77
2018-11-07T10:00:05.967Z,66.74
2018-11-07T10:02:37.151Z,65.95
2018-11-07T10:05:09.430Z,66.59
2018-11-07T10:07:41.055Z,67.49
2018-11-07T10:10:14.861Z,66.01
2018-11-07T10:12:46.318Z,64.95
2018-11-07T10:15:17.562Z,65.93
2018-11-07T10:17:48.980Z,68.80
2018-11-07T10:20:21.440Z,70.33
2018-11-07T10:22:52.363Z,73.45
2018-11-07T10:25:23.356Z,71.89
2018-11-07T10:27:55.305Z,70.98
2018-11-07T10:30:26.091Z,72.59
2018-11-07T10:32:57.021Z,74.82
2018-11-07T10:35:28.365Z,75.74
2018-11-07T10:37:59.654Z,76.02
2018-11-07T10:40:30.675Z,77.03
2018-11-07T10:43:02.000Z,77.54
2018-11-07T10:45:33.611Z,76.57
2018-11-07T10:48:04.511Z,76.82
2018-11-07T10:50:35.478Z,76.87
2018-11-07T10:53:06.532Z,77.33
2018-11-07T10:55:37.618Z,76.82
2018-11-07T10:58:08.559Z,75.78
2018-11-07T11:00:57.550Z,75.35
2018-11-07T11:03:28.923Z,73.83
2018-11-07T11:06:00.232Z,70.85
2018-11-07T11:08:31.499Z,69.39
2018-11-07T11:11:02.478Z,70.20
2018-11-07T11:13:33.385Z,70.50
2018-11-07T11:16:04.753Z,69.76
2018-11-07T11:18:35.733Z,70.81
2018-11-07T11:21:07.494Z,71.23
2018-11-07T11:23:38.638Z,70.74
2018-11-07T11:26:09.677Z,71.80
2018-11-07T11:28:40.646Z,71.22
2018-11-07T11:31:11.625Z,73.06
2018-11-07T11:33:42.616Z,73.10
2018-11-07T11:36:13.579Z,73.23
2018-11-07T11:38:47.164Z,73.53
2018-11-07T11:41:18.211Z,74.02
2018-11-07T11:43:49.099Z,73.61
2018-11-07T11:46:20.677Z,73.41
2018-11-07T11:48:52.069Z,74.17
2018-11-07T11:51:23.088Z,74.35
2018-11-07T11:53:54.174Z,74.39
2018-11-07T11:56:25.526Z,74.24
2018-11-07T11:58:56.924Z,73.89
2018-11-07T12:01:27.990Z,73.13
2018-11-07T12:03:59.614Z,72.02
2018-11-07T12:06:31.011Z,71.68
2018-11-07T12:09:02.006Z,70.64
2018-11-07T12:11:33.233Z,65.93
2018-11-07T12:14:04.230Z,61.93
2018-11-07T12:16:35.318Z,58.85
2018-11-07T12:19:06.316Z,57.29
2018-11-07T12:21:37.379Z,57.23
2018-11-07T12:24:08.938Z,55.50
2018-11-07T12:26:40.019Z,55.52
2018-11-07T12:29:10.970Z,55.13
2018-11-07T12:31:42.511Z,55.28
2018-11-07T12:34:13.653Z,54.23
2018-11-07T12:36:45.353Z,54.79
2018-11-07T12:39:17.104Z,54.42
2018-11-07T12:41:48.183Z,53.55
2018-11-07T12:44:19.137Z,53.00
2018-11-07T12:46:50.477Z,53.05
2018-11-07T12:49:21.473Z,51.57
2018-11-07T12:51:52.478Z,53.72
2018-11-07T12:54:23.458Z,54.23
2018-11-07T12:56:54.646Z,54.06
2018-11-07T12:59:25.782Z,52.42
2018-11-07T13:01:56.772Z,52.00
2018-11-07T13:04:27.723Z,51.90
2018-11-07T13:06:58.725Z,51.81
2018-11-07T13:09:30.046Z,51.68
2018-11-07T13:12:01.301Z,51.37
2018-11-07T13:14:32.328Z,50.47
2018-11-07T13:17:03.689Z,50.20
2018-11-07T13:19:34.979Z,49.98
2018-11-07T13:22:06.137Z,51.01
2018-11-07T13:24:37.445Z,50.54
2018-11-07T13:27:08.407Z,49.52
2018-11-07T13:29:39.518Z,48.90
2018-11-07T13:32:10.928Z,48.17
2018-11-07T13:34:41.927Z,48.27
2018-11-07T13:37:13.080Z,48.75
2018-11-07T13:39:44.459Z,48.35
2018-11-07T13:42:15.370Z,50.17
2018-11-07T13:44:46.312Z,49.57
2018-11-07T13:47:17.272Z,49.57
2018-11-07T13:49:48.512Z,50.67
2018-11-07T13:52:19.405Z,51.27
2018-11-07T13:54:50.448Z,52.40
2018-11-07T13:57:21.349Z,52.04
2018-11-07T13:59:52.237Z,52.14
2018-11-07T14:02:23.174Z,53.56
2018-11-07T14:04:54.434Z,53.22
2018-11-07T14:07:25.715Z,53.92
2018-11-07T14:09:56.946Z,52.53
2018-11-07T14:12:27.867Z,54.15
2018-11-07T14:14:58.820Z,54.39
2018-11-07T14:17:30.020Z,53.44
2018-11-07T14:20:01.169Z,53.72
2018-11-07T14:22:32.437Z,54.03
2018-11-07T14:25:03.407Z,54.25
2018-11-07T14:27:34.471Z,53.30
2018-11-07T14:30:07.904Z,53.77
2018-11-07T14:32:40.083Z,54.48
2018-11-07T14:35:11.025Z,53.70
2018-11-07T14:37:42.090Z,53.79
2018-11-07T14:40:13.234Z,55.73
2018-11-07T14:42:44.424Z,56.95
2018-11-07T14:45:15.312Z,57.98
2018-11-07T14:47:46.282Z,58.93
2018-11-07T14:50:17.120Z,58.30
2018-11-07T14:52:48.131Z,59.17
2018-11-07T14:55:19.032Z,59.43
2018-11-07T14:57:49.931Z,61.47
2018-11-07T15:00:20.881Z,63.57
2018-11-07T15:02:51.912Z,64.87
2018-11-07T15:05:22.748Z,66.38
2018-11-07T15:07:53.721Z,68.21
2018-11-07T15:10:25.053Z,68.68
2018-11-07T15:12:55.921Z,68.84
2018-11-07T15:15:26.809Z,69.15
2018-11-07T15:17:57.732Z,69.91
2018-11-07T15:20:28.634Z,70.74
2018-11-07T15:22:59.590Z,71.87
2018-11-07T15:25:30.480Z,73.22
2018-11-07T15:28:01.459Z,74.87
2018-11-07T15:30:32.347Z,75.12
2018-11-07T15:33:03.621Z,75.97
2018-11-07T15:35:34.529Z,77.07
2018-11-07T15:38:05.575Z,77.43
2018-11-07T15:40:36.535Z,78.67
2018-11-07T15:43:07.518Z,78.98
2018-11-07T15:45:38.749Z,79.28
2018-11-07T15:48:09.625Z,80.93
2018-11-07T15:50:57.645Z,81.09
2018-11-07T15:53:28.998Z,81.48
2018-11-07T15:55:59.868Z,82.40
2018-11-07T15:58:30.763Z,82.47
2018-11-07T16:01:01.634Z,82.58
2018-11-07T16:03:51.230Z,82.45
2018-11-07T16:06:22.201Z,82.47
2018-11-07T16:08:53.038Z,81.73
2018-11-07T16:11:24.818Z,82.10
2018-11-07T16:13:56.014Z,83.01
2018-11-07T16:16:28.110Z,82.32
2018-11-07T16:18:59.099Z,82.41
2018-11-07T16:21:30.261Z,83.05
2018-11-07T16:24:01.201Z,81.04
2018-11-07T16:26:32.016Z,81.77
2018-11-07T16:29:02.908Z,81.52
2018-11-07T16:31:33.770Z,81.81
2018-11-07T16:34:04.665Z,82.59
2018-11-07T16:36:35.595Z,83.76
2018-11-07T16:39:09.234Z,84.24
2018-11-07T16:41:40.320Z,83.72
2018-11-07T16:44:11.708Z,83.31
2018-11-07T16:46:42.879Z,82.60
2018-11-07T16:49:14.417Z,82.66
2018-11-07T16:51:45.313Z,82.39
2018-11-07T16:54:22.170Z,82.69
2018-11-07T16:56:53.086Z,83.34
2018-11-07T16:59:24.441Z,83.42
2018-11-07T17:01:55.342Z,84.24
2018-11-07T17:04:26.638Z,85.79
2018-11-07T17:06:57.557Z,85.92
2018-11-07T17:09:28.411Z,86.04
2018-11-07T17:11:59.293Z,86.30
2018-11-07T17:14:30.494Z,87.77
2018-11-07T17:17:01.460Z,89.19
2018-11-07T17:19:32.370Z,89.20
2018-11-07T17:22:03.274Z,89.82
2018-11-07T17:24:34.371Z,89.58
2018-11-07T17:27:05.118Z,88.70
2018-11-07T17:29:36.069Z,87.95
2018-11-07T17:32:07.093Z,87.50
2018-11-07T17:34:37.976Z,85.50
2018-11-07T17:37:08.878Z,84.44
2018-11-07T17:39:39.705Z,85.94
2018-11-07T17:42:10.593Z,86.26
2018-11-07T17:44:41.623Z,86.44
2018-11-07T17:47:12.524Z,87.86
2018-11-07T17:49:43.668Z,87.24
2018-11-07T17:52:14.529Z,87.15
2018-11-07T17:54:45.406Z,86.39
2018-11-07T17:57:16.276Z,86.40
2018-11-07T17:59:47.383Z,86.08
2018-11-07T18:02:18.268Z,86.32
2018-11-07T18:04:50.433Z,88.20
2018-11-07T18:07:21.332Z,87.42
2018-11-07T18:09:52.982Z,86.07
2018-11-07T18:12:23.782Z,84.55
2018-11-07T18:14:54.704Z,84.91
2018-11-07T18:17:25.949Z,85.21
2018-11-07T18:19:57.198Z,86.89
2018-11-07T18:22:28.440Z,85.14
2018-11-07T18:24:59.813Z,83.53
2018-11-07T18:27:30.744Z,85.03
2018-11-07T18:30:01.985Z,87.88
2018-11-07T18:32:32.943Z,86.28
2018-11-07T18:35:03.894Z,87.41
2018-11-07T18:37:34.773Z,84.55
2018-11-07T18:40:07.194Z,87.37
2018-11-07T18:42:38.456Z,83.94
2018-11-07T18:45:11.080Z,84.25
2018-11-07T18:47:43.362Z,85.06
2018-11-07T18:50:15.702Z,86.00
2018-11-07T18:52:47.052Z,87.84
2018-11-07T18:55:18.501Z,88.78
2018-11-07T18:57:49.422Z,87.78
2018-11-07T19:00:21.143Z,83.52
2018-11-07T19:02:52.097Z,84.31
2018-11-07T19:05:23.364Z,86.83
2018-11-07T19:07:54.322Z,86.61
2018-11-07T19:10:25.247Z,87.12
2018-11-07T19:12:56.139Z,85.05
2018-11-07T19:15:27.049Z,85.95
2018-11-07T19:17:57.993Z,87.87
2018-11-07T19:20:29.205Z,86.71
2018-11-07T19:23:00.441Z,85.15
2018-11-07T19:25:31.376Z,87.52
2018-11-07T19:28:03.037Z,88.06
2018-11-07T19:30:35.210Z,84.61
2018-11-07T19:33:06.238Z,84.04
2018-11-07T19:35:37.107Z,84.62
2018-11-07T19:38:08.367Z,84.32
2018-11-07T19:40:39.687Z,85.14
2018-11-07T19:43:11.015Z,85.87
2018-11-07T19:45:41.941Z,86.11
2018-11-07T19:48:13.236Z,86.18
2018-11-07T19:50:44.651Z,86.36
2018-11-07T19:53:15.712Z,86.17
2018-11-07T19:55:47.037Z,85.84
2018-11-07T19:58:18.400Z,86.26
2018-11-07T20:00:49.849Z,86.15
2018-11-07T20:03:20.773Z,86.60
2018-11-07T20:05:52.120Z,86.60
2018-11-07T20:08:23.075Z,88.73
2018-11-07T20:10:54.255Z,87.67
2018-11-07T20:13:25.204Z,86.14
2018-11-07T20:15:56.270Z,85.14
2018-11-07T20:18:27.236Z,85.51
2018-11-07T20:20:58.153Z,85.25
2018-11-07T20:23:29.941Z,85.42
2018-11-07T20:26:00.896Z,85.52
2018-11-07T20:28:31.984Z,85.48
2018-11-07T20:31:03.219Z,85.33
2018-11-07T20:33:35.341Z,85.87
2018-11-07T20:36:06.851Z,86.26
2018-11-07T20:38:37.860Z,85.89
2018-11-07T20:41:09.031Z,86.12
2018-11-07T20:43:40.322Z,85.63
2018-11-07T20:46:11.300Z,86.13
2018-11-07T20:48:42.289Z,87.19
2018-11-07T20:51:13.185Z,86.63
2018-11-07T20:53:44.131Z,86.24
2018-11-07T20:56:15.618Z,86.36
2018-11-07T20:58:46.583Z,86.28
2018-11-07T21:01:17.601Z,86.40
2018-11-07T21:03:48.649Z,86.29
2018-11-07T21:06:19.826Z,86.35
2018-11-07T21:08:51.432Z,86.19
2018-11-07T21:11:22.476Z,86.32
2018-11-07T21:13:53.693Z,86.24
2018-11-07T21:16:24.877Z,86.71
2018-11-07T21:18:55.856Z,85.96
2018-11-07T21:21:26.979Z,86.28
2018-11-07T21:23:57.882Z,86.34
2018-11-07T21:26:28.840Z,86.81
2018-11-07T21:29:00.056Z,86.60
2018-11-07T21:31:31.852Z,86.86
2018-11-07T21:34:03.461Z,86.38
2018-11-07T21:36:34.372Z,85.62
2018-11-07T21:39:07.779Z,85.50
2018-11-07T21:41:38.967Z,85.84
2018-11-07T21:44:09.966Z,85.56
2018-11-07T21:46:40.934Z,85.64
2018-11-07T21:49:11.882Z,85.57
2018-11-07T21:51:43.531Z,85.53
2018-11-07T21:54:14.858Z,85.41
2018-11-07T21:56:46.050Z,85.64
2018-11-07T21:59:17.003Z,85.14
2018-11-07T22:01:48.092Z,85.20
2018-11-07T22:04:18.984Z,85.69
2018-11-07T22:06:50.060Z,86.18
2018-11-07T22:09:22.129Z,86.77
2018-11-07T22:11:53.007Z,86.86
2018-11-07T22:14:24.018Z,87.65
2018-11-07T22:16:55.057Z,87.15
2018-11-07T22:19:26.324Z,86.59
2018-11-07T22:21:57.351Z,86.44
2018-11-07T22:24:28.296Z,86.28
2018-11-07T22:26:59.321Z,86.11
2018-11-07T22:29:30.305Z,86.83
2018-11-07T22:32:01.691Z,86.95
2018-11-07T22:34:33.023Z,86.19
2018-11-07T22:37:04.372Z,86.94
2018-11-07T22:39:35.389Z,87.72
2018-11-07T22:42:07.557Z,87.82
2018-11-07T22:44:38.835Z,87.52
2018-11-07T22:47:09.835Z,85.91
2018-11-07T22:49:41.667Z,84.77
2018-11-07T22:52:12.634Z,85.40
2018-11-07T22:54:43.927Z,86.18
2018-11-07T22:57:14.904Z,86.79
2018-11-07T22:59:45.910Z,86.59
2018-11-07T23:02:16.860Z,85.68
2018-11-07T23:04:48.043Z,85.48
2018-11-07T23:07:19.014Z,85.63
2018-11-07T23:09:50.005Z,86.52
2018-11-07T23:12:21.488Z,86.93
2018-11-07T23:14:52.857Z,87.78
2018-11-07T23:17:23.804Z,87.86
2018-11-07T23:19:55.033Z,87.76
2018-11-07T23:22:25.975Z,87.45
2018-11-07T23:24:57.010Z,87.83
2018-11-07T23:27:27.946Z,87.22
2018-11-07T23:29:58.908Z,87.58
2018-11-07T23:32:29.874Z,87.76
2018-11-07T23:35:01.304Z,87.46
2018-11-07T23:37:32.310Z,87.24
2018-11-07T23:40:03.567Z,87.31
2018-11-07T23:42:34.797Z,87.25
2018-11-07T23:45:06.445Z,87.76
2018-11-07T23:47:37.822Z,88.69
2018-11-07T23:50:09.933Z,88.56
2018-11-07T23:52:51.056Z,88.80
2018-11-07T23:55:23.326Z,88.46
2018-11-07T23:57:54.976Z,88.20
